Time;durP1;ratioP1;P1;durP2;ratioP2;P2;SDS_P1;SDS_P2;PMS_P1;PMS_P2;Temp;Humidity;BMP_temperature;BMP_pressure;BME280_temperature;BME280_humidity;BME280_pressure;Samples;Min_cycle;Max_cycle;Signal;HPM_P1;HPM_P2
2022/03/13 00:00:30;;;;;;;;;;;2.30;99.90;;;1.20;44.82;95583.75;10550248;28;1814;-81
2022/03/13 00:05:38;;;;;;;;;;;2.30;99.90;;;1.02;45.37;95580.06;10569936;28;1890;-83
2022/03/13 00:10:41;;;;;;;;;;;2.20;99.90;;;0.99;46.02;95579.69;10520682;28;1874;-82
2022/03/13 00:15:45;;;;;;;;;;;2.20;99.90;;;1.01;45.79;95572.31;10524246;28;1826;-81
2022/03/13 00:20:48;;;;;;;;;;;2.00;99.90;;;0.88;46.12;95583.84;10527494;28;1982;-82
2022/03/13 00:25:52;;;;;;;;;;;2.00;99.90;;;0.72;48.05;95576.47;10539444;28;1914;-82
2022/03/13 00:30:56;;;;;;;;;;;1.90;99.90;;;0.77;46.94;95566.88;10551621;28;1950;-81
2022/03/13 00:35:59;;;;;;;;;;;;;;;0.73;47.88;95580.72;10549015;28;1721;-83
2022/03/13 00:41:03;;;;;;;;;;;;;;;0.66;47.87;95577.34;10577774;28;1552;-82
2022/03/13 00:46:07;;;;;;;;;;;;;;;0.76;47.60;95565.25;10569976;28;1980;-81
2022/03/13 00:51:11;;;;;;;;;;;;;;;0.69;48.17;95564.47;10561807;28;1917;-80
2022/03/13 00:56:14;;;;;;;;;;;;;;;0.57;48.16;95554.81;10579413;28;1762;-83
2022/03/13 01:01:18;;;;;;;;;;;;;;;0.49;49.27;95553.25;10551819;28;1929;-82
2022/03/13 01:06:22;;;;;;;;;;;;;;;0.54;49.02;95543.66;10548616;28;2014;-82
2022/03/13 01:11:26;;;;;;;;;;;;;;;0.44;49.27;95540.66;10575741;28;1803;-82
2022/03/13 01:16:29;;;;;;;;;;;;;;;0.37;49.85;95534.63;10573764;28;1851;-82
2022/03/13 01:21:33;;;;;;;;;;;;;;;0.37;49.65;95528.53;10578855;28;1929;-81
2022/03/13 01:26:37;;;;;;;;;;;;;;;0.43;48.77;95533.75;10566665;28;1957;-81
2022/03/13 01:31:41;;;;;;;;;;;;;;;0.37;50.11;95524.06;10538828;28;2140;-81
2022/03/13 01:36:50;;;;;;;;;;;;;;;0.40;49.14;95523.63;10534313;28;2332;-82
2022/03/13 01:41:53;;;;;;;;;;;;;;;0.24;49.89;95534.72;10518162;28;1649;-81
2022/03/13 01:46:57;;;;;;;;;;;;;;;0.20;50.01;95523.78;10522600;28;1927;-83
2022/03/13 01:52:01;;;;;;;;;;;1.10;99.90;;;0.09;50.36;95524.47;10510692;28;2001;-82
2022/03/13 01:57:05;;;;;;;;;;;;;;;0.04;50.81;95523.50;10567467;28;1989;-80
2022/03/13 02:02:08;;;;;;;;;;;1.00;99.90;;;-0.07;50.54;95527.63;10525632;28;2106;-82
2022/03/13 02:07:12;;;;;;;;;;;;;;;-0.15;50.26;95520.75;10555571;28;2189;-82
2022/03/13 02:12:17;;;;;;;;;;;;;;;-0.16;50.41;95523.63;10537456;28;2151;-82
2022/03/13 02:17:26;;;;;;;;;;;;;;;-0.25;51.17;95511.66;10546654;28;1993;-82
2022/03/13 02:22:43;;;;;;;;;;;;;;;-0.33;50.82;95523.31;10539498;28;1879;-82
2022/03/13 02:27:48;;;;;;;;;;;;;;;-0.40;50.61;95514.59;10538603;28;1942;-82
2022/03/13 02:32:52;;;;;;;;;;;;;;;-0.38;50.83;95515.19;10527480;28;1903;-82
2022/03/13 02:37:56;;;;;;;;;;;;;;;-0.55;51.72;95513.06;10536915;28;2029;-83
2022/03/13 02:43:01;;;;;;;;;;;;;;;-0.51;51.05;95510.78;10536517;28;1993;-82
2022/03/13 02:48:04;;;;;;;;;;;;;;;-0.52;51.04;95511.00;10533233;28;1967;-82
2022/03/13 02:53:09;;;;;;;;;;;;;;;-0.51;50.34;95510.78;10531339;28;1923;-82
2022/03/13 02:58:12;;;;;;;;;;;;;;;-0.52;51.19;95511.81;10528237;28;2204;-83
2022/03/13 03:03:15;;;;;;;;;;;;;;;-0.54;50.07;95511.22;10516829;28;1999;-83
2022/03/13 03:08:20;;;;;;;;;;;;;;;-0.71;51.83;95518.81;10531144;28;2295;-83
2022/03/13 03:13:23;;;;;;;;;;;;;;;-0.93;53.08;95536.75;10530293;28;2199;-83
2022/03/13 03:18:28;;;;;;;;;;;;;;;-0.90;53.43;95527.59;10532602;28;2336;-83
2022/03/13 03:23:32;;;;;;;;;;;;;;;-0.76;52.13;95523.09;10534188;28;2247;-83
2022/03/13 03:28:36;;;;;;;;;;;;;;;-0.72;52.15;95525.09;10531703;28;2039;-82
2022/03/13 03:33:39;;;;;;;;;;;;;;;-0.79;52.70;95524.31;10513149;28;1976;-81
2022/03/13 03:38:43;;;;;;;;;;;;;;;-0.75;52.67;95520.25;10533601;28;2020;-82
2022/03/13 03:43:47;;;;;;;;;;;;;;;-0.74;53.48;95531.63;10536824;28;1969;-82
2022/03/13 03:48:50;;;;;;;;;;;;;;;-0.77;53.35;95538.13;10535674;28;1994;-81
2022/03/13 03:53:54;;;;;;;;;;;;;;;-0.71;52.89;95532.00;10552474;28;1943;-82
2022/03/13 03:58:57;;;;;;;;;;;;;;;-0.81;53.41;95542.19;10538823;28;1969;-81
2022/03/13 04:04:01;;;;;;;;;;;;;;;-0.93;53.65;95543.88;10543256;28;1968;-81
2022/03/13 04:09:05;;;;;;;;;;;;;;;-1.02;53.10;95553.00;10532417;28;2014;-81
2022/03/13 04:14:09;;;;;;;;;;;;;;;-1.15;53.09;95549.38;10538859;28;1503;-81
2022/03/13 04:19:12;;;;;;;;;;;;;;;-1.09;53.71;95550.38;10548771;28;1929;-83
2022/03/13 04:24:16;;;;;;;;;;;;;;;-1.11;53.42;95545.31;10484210;28;1385879;-82
2022/03/13 04:29:23;;;;;;;;;;;;;;;-1.14;53.86;95548.38;10534150;28;2010;-83
2022/03/13 04:34:28;;;;;;;;;;;;;;;-1.34;55.65;95550.22;10542381;28;1889;-83
2022/03/13 04:39:35;;;;;;;;;;;;;;;-1.17;53.89;95556.69;10530541;28;2016;-83
2022/03/13 04:44:38;;;;;;;;;;;;;;;-1.26;54.32;95560.56;10541728;28;1957;-83
2022/03/13 04:49:42;;;;;;;;;;;;;;;-1.18;53.34;95560.34;10547180;28;1913;-82
2022/03/13 04:54:50;;;;;;;;;;;;;;;-1.22;54.29;95564.41;10535052;28;2176;-82
2022/03/13 04:59:53;;;;;;;;;;;;;;;-1.30;54.37;95575.16;10541640;28;1933;-81
2022/03/13 05:04:58;;;;;;;;;;;;;;;-1.22;53.94;95571.50;10546702;28;1948;-82
2022/03/13 05:10:01;;;;;;;;;;;;;;;-1.37;55.17;95587.56;10542632;28;2085;-83
2022/03/13 05:15:05;;;;;;;;;;;;;;;-1.35;54.82;95588.16;10534178;28;1886;-82
2022/03/13 05:20:08;;;;;;;;;;;;;;;-1.34;55.03;95581.84;10545940;28;1910;-82
2022/03/13 05:25:11;;;;;;;;;;;;;;;-1.40;55.23;95580.03;10527592;28;1964;-82
2022/03/13 05:30:15;;;;;;;;;;;;;;;-1.49;55.72;95597.09;10534639;28;1847;-81
2022/03/13 05:35:18;;;;;;;;;;;;;;;-1.23;55.21;95599.72;10540218;28;2040;-81
2022/03/13 05:40:21;;;;;;;;;;;;;;;-1.25;55.01;95598.31;10554207;28;1949;-81
2022/03/13 05:45:25;;;;;;;;;;;;;;;-1.26;56.47;95594.03;10547302;28;1902;-82
2022/03/13 05:50:28;;;;;;;;;;;;;;;-1.20;56.87;95606.41;10535359;28;1850;-81
2022/03/13 05:55:32;;;;;;;;;;;;;;;-1.00;55.79;95614.31;10533114;28;1922;-82
2022/03/13 06:00:39;;;;;;;;;;;;;;;-0.84;54.81;95611.22;10520642;28;1907;-82
2022/03/13 06:05:44;;;;;;;;;;;;;;;-0.77;56.27;95617.28;10552616;28;2056;-81
2022/03/13 06:10:47;;;;;;;;;;;;;;;-0.74;55.69;95622.16;10549547;28;1844;-82
2022/03/13 06:15:51;;;;;;;;;;;;;;;-0.53;56.58;95625.56;10526242;28;2174;-82
2022/03/13 06:20:54;;;;;;;;;;;;;;;-0.45;56.06;95609.47;10540275;28;2021;-82
2022/03/13 06:26:00;;;;;;;;;;;;;;;-0.18;54.79;95618.13;10538396;28;1981;-82
2022/03/13 06:31:03;;;;;;;;;;;;;;;0.07;55.23;95623.50;10542845;28;1945;-81
2022/03/13 06:36:07;;;;;;;;;;;;;;;0.05;54.03;95620.25;10521754;28;1925;-81
2022/03/13 06:41:11;;;;;;;;;;;;;;;0.16;53.60;95622.22;10534127;28;1937;-81
2022/03/13 06:46:15;;;;;;;;;;;;;;;0.36;53.38;95622.91;10541403;28;2087;-82
2022/03/13 06:51:19;;;;;;;;;;;;;;;0.49;52.08;95622.81;10537007;28;1998;-82
2022/03/13 06:56:23;;;;;;;;;;;;;;;0.65;51.50;95632.09;10538314;28;1828;-83
2022/03/13 07:01:27;;;;;;;;;;;;;;;0.82;51.43;95638.44;10518516;28;2032;-82
2022/03/13 07:06:33;;;;;;;;;;;;;;;1.06;51.42;95639.47;10527140;28;2077;-84
2022/03/13 07:11:45;;;;;;;;;;;;;;;1.24;50.61;95651.13;10539613;28;2346;-82
2022/03/13 07:16:49;;;;;;;;;;;;;;;1.33;50.85;95647.16;10521021;28;1803;-82
2022/03/13 07:21:52;;;;;;;;;;;;;;;1.45;50.65;95641.97;10525448;28;1901;-82
2022/03/13 07:26:56;;;;;;;;;;;;;;;1.72;49.69;95650.44;10539275;28;1935;-83
2022/03/13 07:32:00;;;;;;;;;;;;;;;1.86;49.54;95643.97;10533305;28;1870;-83
2022/03/13 07:37:03;;;;;;;;;;;;;;;2.19;49.29;95648.84;10528194;28;2143;-81
2022/03/13 07:42:07;;;;;;;;;;;;;;;2.32;49.64;95645.22;10520118;28;1939;-82
2022/03/13 07:47:11;;;;;;;;;;;;;;;2.48;49.88;95641.91;10507795;28;1938;-81
2022/03/13 07:52:15;;;;;;;;;;;;;;;2.67;48.74;95638.19;10527699;28;1892;-82
2022/03/13 07:57:19;;;;;;;;;;;;;;;2.91;48.36;95630.25;10534453;28;1795;-82
2022/03/13 08:02:22;;;;;;;;;;;;;;;3.19;48.63;95638.38;10578539;27;1854;-81
2022/03/13 08:07:25;;;;;;;;;;;;;;;3.30;47.86;95634.09;10569209;28;2068;-81
2022/03/13 08:12:29;;;;;;;;;;;;;;;3.66;47.02;95638.34;10561712;27;1598;-79
2022/03/13 08:17:33;;;;;;;;;;;;;;;4.00;46.73;95630.53;10558351;28;1639;-79
2022/03/13 08:22:37;;;;;;;;;;;;;;;4.18;46.09;95629.56;10576423;28;1848;-81
2022/03/13 08:27:40;;;;;;;;;;;;;;;4.46;45.91;95631.44;10569457;28;1891;-82
2022/03/13 08:32:43;;;;;;;;;;;;;;;4.39;44.93;95628.09;10557964;28;1906;-83
2022/03/13 08:37:47;;;;;;;;;;;;;;;4.80;44.49;95624.31;10550997;28;1797;-82
2022/03/13 08:42:51;;;;;;;;;;;;;;;4.98;43.94;95623.28;10531839;28;1694;-82
2022/03/13 08:47:54;;;;;;;;;;;;;;;5.26;43.36;95625.84;10548982;28;1955;-82
2022/03/13 08:52:58;;;;;;;;;;;;;;;5.52;42.71;95628.88;10546148;28;1787;-84
2022/03/13 08:58:01;;;;;;;;;;;;;;;5.57;42.73;95626.28;10520671;28;1783;-78
2022/03/13 09:03:05;;;;;;;;;;;;;;;5.56;42.74;95633.50;10541603;28;1807;-82
2022/03/13 09:08:09;;;;;;;;;;;;;;;6.05;41.99;95630.97;10523385;28;1988;-85
2022/03/13 09:13:13;;;;;;;;;;;;;;;6.20;41.50;95627.66;10539680;28;1898;-83
2022/03/13 09:18:17;;;;;;;;;;;;;;;6.25;41.72;95617.06;10550406;28;1788;-84
2022/03/13 09:23:23;;;;;;;;;;;;;;;6.72;40.50;95621.81;10540194;28;1849;-87
2022/03/13 09:28:32;;;;;;;;;;;7.40;99.90;;;7.22;40.25;95617.97;10528963;28;1967;-85
2022/03/13 09:33:36;;;;;;;;;;;7.80;99.90;;;7.45;38.86;95609.59;10547653;28;1920;-85
2022/03/13 09:38:39;;;;;;;;;;;7.70;99.30;;;7.70;38.27;95616.97;10525948;28;2251;-82
2022/03/13 09:43:42;;;;;;;;;;;8.50;86.90;;;7.77;37.96;95614.06;10539781;28;1870;-82
2022/03/13 09:48:45;;;;;;;;;;;8.40;98.00;;;8.09;37.65;95611.25;10538696;28;1973;-82
2022/03/13 09:53:48;;;;;;;;;;;8.50;95.50;;;8.20;37.46;95614.75;10536285;28;1893;-82
2022/03/13 09:58:52;;;;;;;;;;;8.90;99.90;;;8.32;36.95;95604.63;10550124;28;1919;-83
2022/03/13 10:03:57;;;;;;;;;;;8.90;99.90;;;8.36;36.54;95603.09;10549130;28;1873;-84
2022/03/13 10:09:00;;;;;;;;;;;9.40;99.90;;;8.24;36.64;95605.16;10532406;28;1999;-85
2022/03/13 10:14:03;;;;;;;;;;;9.10;99.90;;;8.57;35.64;95603.94;10564249;28;1712;-85
2022/03/13 10:19:07;;;;;;;;;;;;;;;9.06;35.09;95601.59;10553103;28;1756;-85
2022/03/13 10:24:10;;;;;;;;;;;9.40;99.90;;;9.19;34.26;95595.69;10544556;28;1783;-84
2022/03/13 10:29:14;;;;;;;;;;;9.70;97.30;;;9.39;34.37;95586.81;10526645;28;2038;-85
2022/03/13 10:34:18;;;;;;;;;;;9.70;99.90;;;9.60;33.87;95584.91;10533904;28;1560;-85
2022/03/13 10:39:21;;;;;;;;;;;10.20;97.60;;;9.15;34.65;95583.88;10547073;28;1689;-85
2022/03/13 10:44:25;;;;;;;;;;;10.20;95.90;;;9.61;34.18;95573.13;10561164;28;1857;-85
2022/03/13 10:49:28;;;;;;;;;;;10.20;96.20;;;9.84;33.69;95570.88;10561138;28;1886;-87
2022/03/13 10:54:31;;;;;;;;;;;10.40;97.20;;;9.59;34.11;95572.56;10548992;28;1807;-85
2022/03/13 10:59:34;;;;;;;;;;;10.50;98.00;;;9.68;34.01;95568.25;10571818;28;1878;-85
2022/03/13 11:04:37;;;;;;;;;;;10.30;95.90;;;9.78;33.61;95580.03;10544709;28;2005;-86
2022/03/13 11:09:40;;;;;;;;;;;10.50;94.20;;;9.98;33.60;95569.22;10529619;28;1996;-84
2022/03/13 11:14:43;;;;;;;;;;;10.60;92.20;;;9.74;33.78;95563.69;10529055;28;1802;-85
2022/03/13 11:19:47;;;;;;;;;;;10.70;82.60;;;9.81;33.88;95556.13;10539306;28;1472;-84
2022/03/13 11:24:50;;;;;;;;;;;10.70;82.30;;;10.21;33.36;95552.47;10539676;28;1926;-84
2022/03/13 11:29:53;;;;;;;;;;;10.80;84.00;;;10.18;33.00;95553.03;10530732;28;1882;-84
2022/03/13 11:34:56;;;;;;;;;;;10.90;82.20;;;10.01;33.23;95557.94;10525547;28;1895;-87
2022/03/13 11:40:00;;;;;;;;;;;10.90;83.90;;;10.05;33.06;95537.50;10524171;28;1790;-83
2022/03/13 11:45:03;;;;;;;;;;;10.90;83.40;;;10.21;32.59;95544.41;10525763;28;1883;-84
2022/03/13 11:50:06;;;;;;;;;;;10.90;83.50;;;10.18;32.67;95541.47;10525846;28;1876;-84
2022/03/13 11:55:09;;;;;;;;;;;11.00;82.40;;;10.24;32.38;95535.03;10520602;28;1906;-85
2022/03/13 12:00:12;;;;;;;;;;;11.00;81.70;;;10.33;32.22;95521.81;10531178;28;1783;-84
2022/03/13 12:05:15;;;;;;;;;;;11.10;81.30;;;10.42;31.97;95512.88;10553935;28;1903;-85
2022/03/13 12:10:18;;;;;;;;;;;11.20;83.60;;;10.48;31.72;95508.28;10526587;28;1805;-84
2022/03/13 12:15:21;;;;;;;;;;;11.20;81.00;;;10.61;31.23;95504.97;10531247;28;1697;-83
2022/03/13 12:20:24;;;;;;;;;;;11.40;92.30;;;10.76;31.24;95488.75;10536526;28;1696;-84
2022/03/13 12:25:27;;;;;;;;;;;11.40;89.40;;;10.98;31.39;95476.72;10541820;28;2133;-83
2022/03/13 12:30:30;;;;;;;;;;;11.60;97.00;;;10.98;31.72;95476.72;10533835;28;1809;-84
2022/03/13 12:35:33;;;;;;;;;;;11.70;92.80;;;11.23;31.31;95471.09;10538874;28;1875;-82
2022/03/13 12:40:36;;;;;;;;;;;11.80;91.70;;;11.24;31.39;95467.31;10536267;28;1954;-83
2022/03/13 12:45:40;;;;;;;;;;;11.90;91.50;;;11.33;32.03;95464.81;10542366;28;1969;-83
2022/03/13 12:50:47;;;;;;;;;;;12.00;92.60;;;11.42;31.81;95467.66;10545273;28;1813;-83
2022/03/13 12:55:50;;;;;;;;;;;12.20;91.70;;;11.38;31.25;95462.84;10536651;28;1838;-85
2022/03/13 13:00:54;;;;;;;;;;;12.20;90.40;;;11.48;31.04;95447.69;10535516;28;1904;-85
2022/03/13 13:05:58;;;;;;;;;;;12.20;89.20;;;11.46;30.37;95452.56;10552930;28;1890;-83
2022/03/13 13:11:01;;;;;;;;;;;12.20;87.30;;;11.46;29.83;95453.38;10545303;28;1871;-84
2022/03/13 13:16:04;;;;;;;;;;;12.30;85.90;;;11.49;29.21;95449.28;10517408;28;1783;-83
2022/03/13 13:21:11;;;;;;;;;;;12.30;85.10;;;11.57;29.23;95440.56;10555685;28;1814;-84
2022/03/13 13:26:18;;;;;;;;;;;12.30;84.50;;;11.61;31.20;95434.31;10562462;28;1917;-84
2022/03/13 13:31:22;;;;;;;;;;;12.30;88.50;;;11.77;29.21;95436.81;10549230;28;1933;-84
2022/03/13 13:36:25;;;;;;;;;;;12.50;84.80;;;11.76;30.88;95427.94;10549445;28;1840;-85
2022/03/13 13:41:29;;;;;;;;;;;12.50;86.30;;;11.80;29.81;95423.59;10536387;28;1838;-85
2022/03/13 13:46:32;;;;;;;;;;;12.60;85.70;;;11.96;28.43;95424.22;10537278;28;1894;-84
2022/03/13 13:51:37;;;;;;;;;;;12.60;87.50;;;12.09;27.84;95425.41;10548326;28;1813;-86
2022/03/13 13:56:40;;;;;;;;;;;12.70;83.70;;;12.09;27.69;95422.72;10523835;28;1488;-77
2022/03/13 14:01:44;;;;;;;;;;;12.80;83.40;;;12.13;28.05;95407.53;10542587;28;1842;-79
2022/03/13 14:06:47;;;;;;;;;;;12.80;83.00;;;12.18;27.41;95408.28;10557171;28;2129;-78
2022/03/13 14:11:50;;;;;;;;;;;13.00;82.50;;;12.31;28.14;95411.31;10556912;28;2085;-77
2022/03/13 14:16:53;;;;;;;;;;;13.00;82.90;;;12.34;27.59;95408.84;10538614;28;1931;-78
2022/03/13 14:21:58;;;;;;;;;;;13.10;86.50;;;12.27;28.33;95408.41;10543517;28;1936;-80
2022/03/13 14:27:02;;;;;;;;;;;13.10;86.90;;;12.49;27.81;95404.31;10555079;28;1988;-78
2022/03/13 14:32:05;;;;;;;;;;;13.10;88.30;;;12.31;28.80;95395.94;10521324;28;1775;-72
2022/03/13 14:37:08;;;;;;;;;;;13.20;89.20;;;12.39;28.55;95394.47;10526637;28;1771;-80
2022/03/13 14:42:31;;;;;;;;;;;13.10;89.30;;;12.48;29.49;95386.53;10555771;28;1780;-81
2022/03/13 14:47:35;;;;;;;;;;;13.20;89.60;;;12.49;29.57;95383.53;10544867;28;1909;-78
2022/03/13 14:52:58;;;;;;;;;;;13.20;99.90;;;12.49;30.51;95385.44;10514108;28;1908;-77
2022/03/13 14:58:00;;;;;;;;;;;13.10;99.90;;;12.55;30.60;95384.25;10509851;28;1793;-79
2022/03/13 15:03:04;;;;;;;;;;;13.20;99.90;;;12.47;30.98;95384.91;10542866;28;1817;-79
2022/03/13 15:08:07;;;;;;;;;;;13.20;99.90;;;12.52;31.31;95387.53;10549816;28;1890;-81
2022/03/13 15:13:10;;;;;;;;;;;13.20;99.90;;;12.55;30.95;95390.44;10540680;28;1967;-81
2022/03/13 15:18:13;;;;;;;;;;;13.30;98.80;;;12.45;31.33;95382.53;10557577;28;1740;-81
2022/03/13 15:23:17;;;;;;;;;;;13.20;97.80;;;12.55;31.45;95381.56;10559207;28;1922;-80
2022/03/13 15:28:20;;;;;;;;;;;13.30;97.50;;;12.54;30.23;95393.44;10535611;28;1958;-80
2022/03/13 15:33:25;;;;;;;;;;;13.30;96.70;;;12.47;30.66;95388.44;10558196;28;1825;-80
2022/03/13 15:38:28;;;;;;;;;;;13.30;95.80;;;12.37;31.04;95386.69;10519446;28;1845;-75
2022/03/13 15:43:33;;;;;;;;;;;13.20;96.00;;;12.29;30.35;95394.66;10532660;28;1814;-74
2022/03/13 15:48:38;;;;;;;;;;;13.10;95.80;;;12.24;30.00;95397.41;10515281;28;1984;-75
2022/03/13 15:53:40;;;;;;;;;;;13.00;95.30;;;12.19;29.90;95400.97;10508376;28;1805;-76
2022/03/13 15:58:44;;;;;;;;;;;13.00;95.60;;;12.12;30.34;95395.16;10508830;28;1860;-71
2022/03/13 16:03:49;;;;;;;;;;;12.90;95.90;;;11.94;31.47;95401.34;10519821;28;2023;-81
2022/03/13 16:08:52;;;;;;;;;;;12.80;95.80;;;11.94;31.39;95393.28;10569720;28;1959;-81
2022/03/13 16:13:56;;;;;;;;;;;12.70;96.20;;;11.88;30.97;95401.41;10544271;28;1822;-82
2022/03/13 16:18:59;;;;;;;;;;;12.60;95.90;;;11.75;30.69;95399.41;10554710;28;1966;-82
2022/03/13 16:24:02;;;;;;;;;;;12.60;95.90;;;11.63;30.85;95404.41;10552856;28;1851;-82
2022/03/13 16:29:05;;;;;;;;;;;12.40;96.00;;;11.51;30.69;95404.03;10545517;28;1902;-82
2022/03/13 16:34:08;;;;;;;;;;;12.30;95.70;;;11.30;31.07;95409.66;10554976;28;1815;-83
2022/03/13 16:39:11;;;;;;;;;;;12.20;96.00;;;11.15;31.86;95425.19;10545488;28;1661;-83
2022/03/13 16:44:15;;;;;;;;;;;12.10;96.10;;;11.03;31.49;95420.19;10574252;28;1541;-81
2022/03/13 16:49:18;;;;;;;;;;;11.90;96.30;;;10.95;31.55;95420.81;10545334;28;1905;-78
2022/03/13 16:54:21;;;;;;;;;;;11.80;96.00;;;10.81;31.84;95418.78;10570005;28;1428;-79
2022/03/13 16:59:24;;;;;;;;;;;11.70;96.00;;;10.60;31.80;95419.25;10567543;28;2085;-79
2022/03/13 17:04:28;;;;;;;;;;;11.50;96.00;;;10.32;32.66;95427.00;10575171;28;1577;-80
2022/03/13 17:09:31;;;;;;;;;;;11.30;96.50;;;10.18;32.43;95424.13;10577835;28;1958;-79
2022/03/13 17:14:34;;;;;;;;;;;11.10;96.70;;;9.98;32.44;95429.59;10579570;28;1767;-79
2022/03/13 17:19:38;;;;;;;;;;;10.90;96.40;;;9.91;32.25;95429.09;10563016;28;1826;-79
2022/03/13 17:24:41;;;;;;;;;;;10.90;96.30;;;9.86;31.98;95423.75;10561029;28;1822;-74
2022/03/13 17:29:45;;;;;;;;;;;10.70;96.00;;;9.66;32.47;95421.97;10555215;28;1902;-74
2022/03/13 17:34:50;;;;;;;;;;;10.60;95.10;;;9.52;32.05;95427.16;10548016;28;1916;-76
2022/03/13 17:39:53;;;;;;;;;;;10.50;94.30;;;9.20;32.51;95433.69;10529660;28;1840;-76
2022/03/13 17:44:56;;;;;;;;;;;10.20;92.70;;;9.05;32.88;95433.75;10494684;28;1870;-72
2022/03/13 17:49:59;;;;;;;;;;;10.00;88.60;;;8.98;32.84;95433.22;10511294;28;2428;-72
2022/03/13 17:55:02;;;;;;;;;;;10.00;85.60;;;8.83;32.94;95435.94;10516013;28;1535;-72
2022/03/13 18:00:06;;;;;;;;;;;9.90;85.10;;;8.65;33.12;95438.09;10499065;28;1978;-72
2022/03/13 18:05:10;;;;;;;;;;;9.70;84.20;;;8.45;33.62;95432.72;10508413;28;1515;-75
2022/03/13 18:10:13;;;;;;;;;;;9.50;84.00;;;8.55;33.13;95432.75;10521744;28;1918;-73
2022/03/13 18:15:16;;;;;;;;;;;9.40;81.40;;;8.49;33.25;95436.50;10516266;28;1467;-74
2022/03/13 18:20:19;;;;;;;;;;;9.40;80.50;;;8.36;33.50;95439.72;10509842;28;1607;-74
2022/03/13 18:25:23;;;;;;;;;;;9.40;79.30;;;8.19;33.47;95444.47;10521034;28;1467;-74
2022/03/13 18:30:26;;;;;;;;;;;9.20;78.90;;;7.92;33.68;95442.84;10507869;28;1978;-75
2022/03/13 18:35:30;;;;;;;;;;;9.00;78.40;;;7.76;34.65;95447.34;10507954;28;1453;-76
2022/03/13 18:40:33;;;;;;;;;;;8.90;77.90;;;7.75;34.15;95435.03;10499036;28;1697;-75
2022/03/13 18:45:36;;;;;;;;;;;8.70;77.30;;;7.63;34.15;95436.31;10515591;28;1825;-75
2022/03/13 18:50:39;;;;;;;;;;;8.60;77.90;;;7.50;34.85;95438.41;10495791;28;1958;-75
2022/03/13 18:55:42;;;;;;;;;;;8.50;76.90;;;7.48;34.45;95431.72;10516910;28;1824;-74
2022/03/13 19:00:46;;;;;;;;;;;8.50;76.10;;;7.29;34.35;95442.09;10499243;28;1942;-73
2022/03/13 19:05:50;;;;;;;;;;;8.30;76.10;;;7.19;34.67;95452.72;10502120;28;2032;-70
2022/03/13 19:10:54;;;;;;;;;;;8.20;77.10;;;7.09;34.61;95455.34;10504120;28;2141;-74
2022/03/13 19:15:58;;;;;;;;;;;8.10;77.60;;;6.94;34.52;95458.75;10510295;28;1771;-69
2022/03/13 19:21:02;;;;;;;;;;;8.00;78.20;;;6.90;34.91;95450.44;10512409;28;1785;-70
2022/03/13 19:26:05;;;;;;;;;;;7.80;77.80;;;6.71;35.17;95454.59;10521650;28;1841;-70
2022/03/13 19:31:09;;;;;;;;;;;8.00;79.20;;;6.52;36.47;95464.06;10499082;28;2175;-70
2022/03/13 19:36:12;;;;;;;;;;;7.60;87.70;;;6.37;36.32;95460.22;10507348;28;1833;-67
2022/03/13 19:41:19;;;;;;;;;;;7.40;99.90;;;6.42;36.24;95468.25;10518984;28;1841;-69
2022/03/13 19:46:22;;;;;;;;;;;7.30;99.90;;;6.27;36.55;95470.78;10518589;28;1822;-69
2022/03/13 19:51:25;;;;;;;;;;;7.20;99.90;;;6.21;36.69;95474.47;10510584;28;1891;-69
2022/03/13 19:56:30;;;;;;;;;;;7.10;90.30;;;6.06;37.28;95471.69;10496036;28;1840;-70
2022/03/13 20:01:34;;;;;;;;;;;7.20;91.30;;;5.89;37.80;95475.19;10516771;28;1861;-69
2022/03/13 20:06:39;;;;;;;;;;;7.00;93.50;;;5.80;37.42;95473.25;10501709;28;1890;-72
2022/03/13 20:11:42;;;;;;;;;;;6.80;93.10;;;5.80;37.52;95476.72;10525446;28;1985;-71
2022/03/13 20:16:45;;;;;;;;;;;6.80;94.50;;;5.67;37.94;95482.44;10524879;28;1833;-72
2022/03/13 20:21:49;;;;;;;;;;;6.70;98.30;;;5.65;37.86;95471.19;10504007;28;1959;-72
2022/03/13 20:26:52;;;;;;;;;;;6.60;99.90;;;5.58;37.66;95479.38;10528118;28;1815;-72
2022/03/13 20:31:56;;;;;;;;;;;6.60;91.60;;;5.49;38.26;95480.91;10509503;28;1979;-72
2022/03/13 20:36:59;;;;;;;;;;;6.60;83.30;;;5.38;38.26;95498.63;10507677;28;1824;-72
2022/03/13 20:42:06;;;;;;;;;;;6.50;99.90;;;5.25;38.60;95490.19;10525191;28;1846;-72
2022/03/13 20:47:09;;;;;;;;;;;6.30;85.90;;;5.31;39.31;95498.00;10520513;28;2038;-71
2022/03/13 20:52:14;;;;;;;;;;;6.30;90.70;;;5.13;39.39;95503.59;10529850;28;1922;-71
2022/03/13 20:57:18;;;;;;;;;;;;;;;4.94;39.99;95504.94;10508681;28;1960;-73
2022/03/13 21:02:22;;;;;;;;;;;;;;;4.89;40.59;95509.13;10521735;28;2088;-73
2022/03/13 21:07:26;;;;;;;;;;;;;;;5.00;39.45;95509.28;10512606;28;1901;-72
2022/03/13 21:12:29;;;;;;;;;;;;;;;4.84;39.76;95510.94;10507047;28;1776;-73
2022/03/13 21:17:33;;;;;;;;;;;;;;;4.82;40.16;95503.16;10521324;28;1876;-73
2022/03/13 21:22:39;;;;;;;;;;;;;;;4.75;40.97;95515.84;10500361;28;1907;-74
2022/03/13 21:27:47;;;;;;;;;;;;;;;4.64;41.19;95523.91;10504678;28;1923;-71
2022/03/13 21:32:52;;;;;;;;;;;;;;;4.57;40.95;95527.53;10504686;28;1875;-76
2022/03/13 21:37:56;;;;;;;;;;;;;;;4.49;41.06;95535.13;10513375;28;1921;-76
2022/03/13 21:43:01;;;;;;;;;;;5.80;93.30;;;4.37;42.11;95535.19;10517367;28;1827;-74
2022/03/13 21:48:04;;;;;;;;;;;5.30;99.90;;;4.33;42.11;95537.53;10533416;28;1942;-74
2022/03/13 21:53:07;;;;;;;;;;;5.40;99.90;;;4.23;42.43;95534.69;10513240;28;1796;-74
2022/03/13 21:58:10;;;;;;;;;;;5.30;99.90;;;3.98;43.43;95539.53;10512611;28;1850;-75
2022/03/13 22:03:14;;;;;;;;;;;5.10;99.90;;;3.94;43.45;95549.84;10526897;28;1902;-72
2022/03/13 22:08:17;;;;;;;;;;;5.10;99.90;;;4.04;42.71;95533.28;10523048;28;1906;-75
2022/03/13 22:13:21;;;;;;;;;;;5.00;99.90;;;3.98;43.44;95535.03;10506924;28;1918;-75
2022/03/13 22:18:25;;;;;;;;;;;4.80;99.90;;;3.93;43.28;95552.75;10520546;28;1808;-76
2022/03/13 22:23:29;;;;;;;;;;;6.00;99.90;;;3.71;44.50;95550.75;10504819;28;1878;-76
2022/03/13 22:28:32;;;;;;;;;;;4.80;99.90;;;3.56;45.44;95557.59;10502515;28;1913;-75
2022/03/13 22:33:36;;;;;;;;;;;4.70;99.80;;;3.58;46.69;95560.84;10520351;28;1775;-77
2022/03/13 22:38:39;;;;;;;;;;;4.70;99.90;;;3.64;45.94;95554.59;10503538;28;1872;-76
2022/03/13 22:43:42;;;;;;;;;;;4.70;99.90;;;3.50;46.29;95559.34;10520999;28;1854;-76
2022/03/13 22:48:45;;;;;;;;;;;4.60;99.90;;;3.53;45.71;95578.28;10505893;28;1983;-75
2022/03/13 22:53:51;;;;;;;;;;;4.50;99.90;;;3.45;46.17;95561.91;10505138;28;1827;-76
2022/03/13 22:58:54;;;;;;;;;;;4.50;99.90;;;3.33;48.59;95577.06;10511904;28;1821;-74
2022/03/13 23:03:58;;;;;;;;;;;4.40;99.90;;;3.29;47.67;95586.50;10504089;28;1853;-74
2022/03/13 23:09:03;;;;;;;;;;;4.40;99.90;;;3.31;48.18;95584.44;10523966;28;1969;-76
2022/03/13 23:14:08;;;;;;;;;;;4.40;98.20;;;3.30;47.62;95588.94;10507528;28;2116;-75
2022/03/13 23:19:12;;;;;;;;;;;4.30;97.10;;;3.20;48.53;95597.50;10504108;28;2171;-76
2022/03/13 23:24:17;;;;;;;;;;;4.40;96.80;;;3.07;48.84;95592.41;10500049;28;1856;-75
2022/03/13 23:29:21;;;;;;;;;;;4.30;99.90;;;3.07;49.75;95597.72;10499992;28;1905;-75
2022/03/13 23:34:26;;;;;;;;;;;4.20;99.90;;;2.92;50.46;95605.31;10502049;28;1978;-75
2022/03/13 23:39:30;;;;;;;;;;;4.10;99.90;;;2.78;51.50;95606.56;10498131;28;1938;-75
2022/03/13 23:44:33;;;;;;;;;;;3.90;99.90;;;2.70;51.64;95621.81;10507147;28;1807;-76
2022/03/13 23:49:37;;;;;;;;;;;3.90;99.90;;;2.68;52.24;95623.88;10521285;28;1918;-75
2022/03/13 23:54:40;;;;;;;;;;;3.70;99.90;;;2.69;53.34;95622.84;10495984;28;2007;-74
2022/03/13 23:59:43;;;;;;;;;;;3.90;99.90;;;2.65;52.90;95626.16;10497837;28;1938;-76
